ADDS METAR Data INFO
IDs: Format: Raw Decoded Include TAF

Data at: 1954 UTC 15 Dec 2017

KI63 151935Z AUTO 25012G18KT 10SM OVC055 03/M07 A2999 RMK AO2 T00341068
KI63 151915Z AUTO 24010G15KT 10SM OVC055 03/M06 A3000 RMK AO2 T00321065
KI63 151855Z AUTO 26010KT 10SM OVC055 03/M07 A3002 RMK AO2 T00271067
KI63 151835Z AUTO 26009KT 10SM OVC055 02/M07 A3003 RMK AO2 T00241066
KI63 151815Z AUTO 27009KT 10SM OVC055 02/M06 A3003 RMK AO2 T00231065
KI63 151755Z AUTO 27007KT 10SM OVC055 02/M07 A3004 RMK AO2 T00201067 10022 21014
KI63 151735Z AUTO 27010KT 10SM OVC055 02/M07 A3006 RMK AO2 T00171070
KI63 151715Z AUTO 28011KT 10SM OVC055 02/M07 A3006 RMK AO2 T00161070
KI63 151655Z AUTO 29010G17KT 10SM SCT055 02/M07 A3006 RMK AO2 T00201070
KI63 151635Z AUTO 30011KT 10SM CLR 02/M07 A3007 RMK AO2 T00151069
KI63 151615Z AUTO 29011G15KT 10SM CLR 01/M07 A3007 RMK AO2 T00111066
KI63 151555Z AUTO 30009KT 10SM CLR 01/M06 A3007 RMK AO2 T00061060
KI63 151535Z AUTO 30010KT 10SM CLR 00/M06 A3007 RMK AO2 T00011056
KI63 151515Z AUTO 31011KT 10SM CLR 00/M05 A3007 RMK AO2 T00001048
KI63 151455Z AUTO 30010KT 10SM CLR 00/M04 A3006 RMK AO2 T10051042
KI63 151435Z AUTO 31007KT 10SM SCT042 M01/M04 A3006 RMK AO2 T10101043
KI63 151415Z AUTO 30011KT 10SM OVC042 M01/M04 A3006 RMK AO2 T10101045
KI63 151355Z AUTO 29007KT 10SM SCT033 OVC039 M01/M04 A3006 RMK AO2 T10111045
KI63 151335Z AUTO 28006KT 10SM SCT025 OVC031 M01/M04 A3006 RMK AO2 T10111045
KI63 151315Z AUTO 28008KT 10SM OVC023 M01/M04 A3005 RMK AO2 T10111045
KI63 151255Z AUTO 29007KT 10SM OVC023 M01/M04 A3005 RMK AO2 T10111045
KI63 151235Z AUTO 28008KT 10SM OVC023 M01/M04 A3005 RMK AO2 T10111045
KI63 151215Z AUTO 28008KT 10SM OVC021 M01/M04 A3005 RMK AO2 T10101043
KI63 151155Z AUTO 28008KT 10SM BKN021 OVC028 M01/M04 A3004 RMK AO2 T10111044 11011 21033
KI63 151135Z AUTO 27006KT 10SM OVC029 M01/M05 A3004 RMK AO2 T10131046
KI63 151115Z AUTO 26008KT 10SM OVC033 M01/M05 A3004 RMK AO2 T10151050
KI63 151055Z AUTO 26007KT 10SM OVC037 M01/M06 A3004 RMK AO2 T10151056
KI63 151035Z AUTO 25008KT 10SM BKN039 OVC045 M02/M06 A3004 RMK AO2 T10171060
KI63 151015Z AUTO 24007KT 10SM OVC045 M02/M06 A3004 RMK AO2 T10201062
KI63 150955Z AUTO 24007KT 10SM OVC047 M02/M06 A3004 RMK AO2 T10221065
KI63 150935Z AUTO 24006KT 10SM OVC047 M02/M06 A3004 RMK AO2 T10251065
KI63 150915Z AUTO 23006KT 10SM OVC047 M02/M07 A3004 RMK AO2 T10251067
KI63 150855Z AUTO 22007KT 10SM BKN047 M03/M07 A3004 RMK AO2 T10291068
KI63 150835Z AUTO 23005KT 10SM SCT047 BKN080 M03/M07 A3005 RMK AO2 T10331070
KI63 150815Z AUTO 23004KT 10SM SCT033 SCT047 OVC080 M03/M07 A3005 RMK AO2 T10281068
KI63 150755Z AUTO 24006KT 10SM BKN033 OVC080 M03/M07 A3006 RMK AO2 T10261067
KI63 150735Z AUTO 23005KT 10SM OVC033 M03/M07 A3006 RMK AO2 T10261067
KI63 150715Z AUTO 24005KT 10SM OVC033 M03/M07 A3006 RMK AO2 T10261067
KI63 150655Z AUTO 24005KT 10SM OVC033 M03/M07 A3006 RMK AO2 T10271070
KI63 150635Z AUTO 24004KT 10SM OVC033 M03/M07 A3006 RMK AO2 T10281070
KI63 150615Z AUTO 23004KT 10SM OVC033 M03/M07 A3007 RMK AO2 T10291071
KI63 150555Z AUTO 23004KT 10SM OVC031 M03/M07 A3008 RMK AO2 T10281072 11025 21029 400001040
KI63 150535Z AUTO 24003KT 10SM OVC029 M03/M07 A3009 RMK AO2 T10281073
KI63 150515Z AUTO 23003KT 10SM OVC029 M03/M07 A3010 RMK AO2 T10281072
KI63 150455Z AUTO 21004KT 10SM OVC029 M03/M07 A3010 RMK AO2 T10281075
KI63 150435Z AUTO 25003KT 10SM OVC029 M03/M08 A3010 RMK AO2 T10281076
KI63 150415Z AUTO 00000KT 10SM OVC029 M03/M07 A3010 RMK AO2 T10281075
KI63 150355Z AUTO 00000KT 10SM OVC029 M03/M07 A3010 RMK AO2 T10281075
KI63 150335Z AUTO 00000KT 10SM OVC029 M03/M08 A3010 RMK AO2 T10281077
KI63 150315Z AUTO 00000KT 10SM OVC029 M03/M08 A3010 RMK AO2 T10281076
KI63 150255Z AUTO 00000KT 10SM OVC029 M03/M08 A3011 RMK AO2 T10281077
KI63 150235Z AUTO 00000KT 10SM OVC029 M03/M08 A3010 RMK AO2 T10281077
KI63 150215Z AUTO 30003KT 10SM OVC029 M03/M08 A3011 RMK AO2 T10271080
KI63 150155Z AUTO 28003KT 10SM OVC027 M03/M08 A3011 RMK AO2 T10261084
KI63 150135Z AUTO 29005KT 10SM OVC029 M02/M08 A3012 RMK AO2 T10251082
KI63 150115Z AUTO 30009KT 10SM OVC029 M02/M08 A3011 RMK AO2 T10251080
KI63 150055Z AUTO 27004KT 10SM OVC029 M02/M08 A3011 RMK AO2 T10251082
KI63 150035Z AUTO 27005KT 10SM OVC031 M02/M08 A3011 RMK AO2 T10251083
KI63 150015Z AUTO 26004KT 10SM OVC031 M02/M08 A3010 RMK AO2 T10251084
KI63 142355Z AUTO 29005KT 10SM OVC031 M02/M08 A3009 RMK AO2 T10251085 11015 21025
KI63 142335Z AUTO 26004KT 10SM OVC031 M02/M08 A3009 RMK AO2 T10231085
KI63 142315Z AUTO 28004KT 10SM OVC031 M02/M08 A3009 RMK AO2 T10221085
KI63 142255Z AUTO 28003KT 10SM OVC033 M02/M09 A3009 RMK AO2 T10251087
KI63 142235Z AUTO 27003KT 10SM OVC031 M02/M09 A3008 RMK AO2 T10221087
KI63 142215Z AUTO 27004KT 10SM OVC031 M02/M09 A3008 RMK AO2 T10201088
KI63 142155Z AUTO 25004KT 10SM OVC031 M02/M09 A3008 RMK AO2 T10211089
KI63 142135Z AUTO 25004KT 10SM OVC031 M02/M09 A3008 RMK AO2 T10201089
KI63 142115Z AUTO 25005KT 10SM OVC031 M02/M09 A3008 RMK AO2 T10181089
KI63 142055Z AUTO 26005KT 10SM OVC031 M02/M09 A3007 RMK AO2 T10191087
KI63 142035Z AUTO 26005KT 10SM BKN031 M02/M09 A3007 RMK AO2 T10201088
KI63 142015Z AUTO 27006KT 10SM OVC029 M02/M09 A3006 RMK AO2 T10191086
KI63 141955Z AUTO 29006KT 10SM OVC029 M02/M09 A3006 RMK AO2 T10191086
KI63 141935Z AUTO 29006KT 10SM OVC029 M02/M09 A3006 RMK AO2 T10191086
KI63 141915Z AUTO 25006KT 10SM OVC029 M02/M09 A3006 RMK AO2 T10191087
KI63 141855Z AUTO 28003KT 10SM OVC029 M02/M09 A3007 RMK AO2 T10221089
KI63 141835Z AUTO 28004KT 10SM OVC027 M02/M09 A3007 RMK AO2 T10211088
KI63 141815Z AUTO 28003KT 10SM OVC027 M02/M09 A3008 RMK AO2 T10241087
KI63 141755Z AUTO 00000KT 10SM OVC027 M02/M09 A3008 RMK AO2 T10251087 11025 21040
KI63 141735Z AUTO 00000KT 10SM OVC027 M03/M09 A3008 RMK AO2 T10271090
KI63 141715Z AUTO 34003KT 10SM OVC027 M03/M09 A3009 RMK AO2 T10281091
KI63 141655Z AUTO 00000KT 10SM OVC027 M03/M09 A3010 RMK AO2 T10281091
KI63 141635Z AUTO 33003KT 10SM OVC025 M03/M09 A3011 RMK AO2 T10301090
KI63 141615Z AUTO 01005KT 10SM OVC025 M03/M09 A3010 RMK AO2 T10271089
KI63 141555Z AUTO 36008KT 10SM OVC025 M03/M09 A3010 RMK AO2 T10301089
KI63 141535Z AUTO 01005KT 10SM OVC025 M03/M09 A3009 RMK AO2 T10321091
KI63 141515Z AUTO 33008KT 10SM OVC025 M03/M09 A3008 RMK AO2 T10321090
KI63 141455Z AUTO 34005KT 10SM OVC025 M03/M09 A3009 RMK AO2 T10331090
KI63 141435Z AUTO 36007KT 10SM OVC025 M03/M09 A3008 RMK AO2 T10351090
KI63 141415Z AUTO 34006KT 10SM OVC025 M04/M09 A3007 RMK AO2 T10361092
KI63 141355Z AUTO 33004KT 10SM OVC025 M04/M09 A3007 RMK AO2 T10361089
KI63 141335Z AUTO 02003KT 10SM OVC025 M04/M09 A3005 RMK AO2 T10371092
KI63 141315Z AUTO 35005KT 10SM OVC025 M04/M09 A3003 RMK AO2 T10371089
KI63 141255Z AUTO 36003KT 10SM OVC025 M04/M09 A3003 RMK AO2 T10401086
KI63 141235Z AUTO 36004KT 10SM OVC025 M04/M09 A3002 RMK AO2 T10381088
KI63 141215Z AUTO 01007KT 10SM OVC025 M04/M09 A3001 RMK AO2 T10371089
KI63 141155Z AUTO 02008KT 10SM OVC025 M04/M09 A3000 RMK AO2 T10371089 10000 21038
KI63 141135Z AUTO 01007KT 10SM OVC025 M03/M09 A2999 RMK AO2 T10351088
KI63 141115Z AUTO 01008KT 10SM OVC025 M03/M08 A2999 RMK AO2 T10341083
KI63 141055Z AUTO 02010KT 10SM OVC025 M03/M08 A2998 RMK AO2 T10321082
KI63 141035Z AUTO 01008KT 10SM OVC025 M03/M08 A2998 RMK AO2 T10311081
KI63 141015Z AUTO 03007KT 10SM OVC025 M03/M08 A2998 RMK AO2 T10301081
KI63 140955Z AUTO 34007KT 10SM OVC025 M03/M08 A2997 RMK AO2 T10291080
KI63 140935Z AUTO 36008KT 10SM OVC025 M03/M08 A2997 RMK AO2 T10291081
KI63 140915Z AUTO 36008KT 10SM OVC025 M03/M08 A2996 RMK AO2 T10271080
KI63 140855Z AUTO 34009KT 10SM OVC025 M02/M08 A2996 RMK AO2 T10251077
KI63 140835Z AUTO 34011KT 10SM OVC025 M02/M07 A2996 RMK AO2 T10251075
KI63 140815Z AUTO 36009KT 10SM OVC025 M02/M07 A2995 RMK AO2 T10241073
KI63 140755Z AUTO 36006KT 10SM OVC025 M02/M07 A2995 RMK AO2 T10231073